Time;durP1;ratioP1;P1;durP2;ratioP2;P2;SDS_P1;SDS_P2;PMS_P1;PMS_P2;Temp;Humidity;BMP_temperature;BMP_pressure;BME280_temperature;BME280_humidity;BME280_pressure;Samples;Min_cycle;Max_cycle;Signal;HPM_P1;HPM_P2
2021/05/18 00:02:44;;;;;;;4.73;4.33;;;;;;;10.13;78.92;98327.29;519093;1093;116023;-61
2021/05/18 00:12:49;;;;;;;2.77;2.57;;;;;;;10.15;79.25;98321.92;523415;1098;115872;-59
2021/05/18 00:22:54;;;;;;;3.85;3.55;;;;;;;10.15;79.33;98321.92;515730;1097;117075;-60
2021/05/18 00:33:00;;;;;;;3.03;2.83;;;;;;;10.09;79.43;98313.59;515840;1098;116221;-60
2021/05/18 00:43:05;;;;;;;5.50;3.90;;;;;;;10.02;79.43;98308.98;523612;1097;116457;-60
2021/05/18 00:53:12;;;;;;;4.30;3.90;;;;;;;10.03;80.04;98306.25;516092;1098;116315;-60
2021/05/18 01:03:17;;;;;;;4.10;3.30;;;;;;;10.03;79.92;98305.41;529598;1098;116766;-60
2021/05/18 01:13:22;;;;;;;3.30;3.00;;;;;;;10.06;80.12;98310.42;517577;1093;116404;-60
2021/05/18 01:23:27;;;;;;;2.27;2.07;;;;;;;10.02;80.37;98304.59;516114;1098;115660;-59
2021/05/18 01:33:33;;;;;;;4.05;3.65;;;;;;;10.00;80.09;98296.02;527632;1098;116490;-60
2021/05/18 01:43:38;;;;;;;3.30;3.00;;;;;;;9.97;80.26;98298.05;524706;1098;116071;-60
2021/05/18 01:53:44;;;;;;;4.45;3.65;;;;;;;9.91;80.39;98294.97;517334;1093;173679;-59
2021/05/18 02:03:49;;;;;;;5.40;4.67;;;;;;;9.87;80.78;98301.42;521762;1098;116276;-60
2021/05/18 02:13:58;;;;;;;5.27;4.77;;;;;;;9.94;80.69;98299.13;517950;1098;117503;-60
2021/05/18 02:34:27;;;;;;;2.80;2.53;;;;;;;10.06;81.03;98316.48;516433;1093;116336;-59
2021/05/18 02:44:38;;;;;;;3.87;3.53;;;;;;;10.03;80.96;98329.84;514197;1098;117253;-60
2021/05/18 02:54:47;;;;;;;3.63;3.33;;;;;;;10.01;81.14;98333.55;519362;1098;116093;-59
2021/05/18 03:04:52;;;;;;;4.87;4.47;;;;;;;9.99;80.98;98340.72;514228;1098;115994;-60
2021/05/18 03:14:58;;;;;;;4.10;3.80;;;;;;;9.94;81.05;98341.93;516294;1098;116234;-60
2021/05/18 03:25:03;;;;;;;4.67;4.07;;;;;;;9.90;81.19;98353.61;523328;1098;116985;-60
2021/05/18 03:35:10;;;;;;;3.10;2.80;;;;;;;9.87;81.18;98359.11;514527;1098;116528;-60
2021/05/18 03:45:18;;;;;;;4.07;2.93;;;;;;;9.81;81.12;98365.68;527004;1098;158041;-60
2021/05/18 04:26:46;;;;;;;4.93;2.70;;;;;;;9.85;81.71;98389.02;513441;1098;115879;-61
2021/05/18 05:08:04;;;;;;;4.27;3.33;;;;;;;10.14;81.09;98399.77;523167;1098;116498;-60
2021/05/18 05:18:11;;;;;;;2.60;2.40;;;;;;;10.18;81.05;98400.36;522600;1093;116027;-60
2021/05/18 05:28:16;;;;;;;3.73;2.60;;;;;;;10.20;81.33;98404.53;518455;1093;117177;-59
2021/05/18 05:38:24;;;;;;;4.80;2.20;;;;;;;10.21;81.20;98418.47;515785;1098;115990;-60
2021/05/18 05:48:29;;;;;;;2.20;2.00;;;;;;;10.27;81.24;98422.38;515779;1098;116304;-60
2021/05/18 05:58:34;;;;;;;2.60;2.30;;;;;;;10.34;81.71;98434.05;519895;1098;117032;-61
2021/05/18 06:08:41;;;;;;;2.60;2.40;;;;;;;10.36;81.50;98447.88;525487;1098;115934;-60
2021/05/18 06:50:29;;;;;;;3.97;2.73;;;;;;;10.32;81.37;98484.02;520496;1098;116716;-65
2021/05/18 07:00:36;;;;;;;2.87;2.50;;;;;;;10.43;81.39;98501.56;520752;1098;116398;-65
2021/05/18 07:10:42;;;;;;;6.07;2.73;;;;;;;10.41;81.20;98505.23;521518;1098;116399;-66
2021/05/18 07:20:47;;;;;;;4.05;2.08;;;;;;;10.56;81.25;98508.44;527029;1098;116429;-66
2021/05/18 07:30:54;;;;;;;4.40;2.50;;;;;;;10.64;81.38;98513.91;517299;1092;116937;-55
2021/05/18 07:40:59;;;;;;;5.97;3.60;;;;;;;10.74;81.30;98519.23;518147;1098;115912;-57
2021/05/18 07:51:15;;;;;;;4.13;3.50;;;;;;;10.77;81.54;98516.34;519335;1093;115466;-58
2021/05/18 08:11:39;;;;;;;3.47;3.07;;;;;;;10.79;81.63;98530.17;529099;1097;116347;-56
2021/05/18 10:38:19;;;;;;;3.80;2.57;;;;;;;12.09;78.54;98589.48;512465;1093;116792;-57
2021/05/18 10:48:26;;;;;;;5.50;3.10;;;;;;;12.44;78.25;98597.92;523864;1098;116053;-58
2021/05/18 10:58:31;;;;;;;3.37;2.67;;;;;;;12.73;77.95;98591.86;513970;1093;116217;-58
2021/05/18 11:08:37;;;;;;;7.95;2.53;;;;;;;12.48;77.92;98591.41;522611;1098;117263;-54
2021/05/18 11:18:47;;;;;;;2.00;1.90;;;;;;;12.45;77.34;98591.68;514260;1093;116328;-61
2021/05/18 11:28:52;;;;;;;1.97;1.73;;;;;;;12.58;76.71;98599.31;516482;1093;118563;-58
2021/05/18 11:39:01;;;;;;;1.93;1.83;;;;;;;12.96;76.32;98604.77;525349;1098;116323;-61
2021/05/18 11:49:07;;;;;;;;;;;;;;;13.11;74.93;98597.29;522044;1093;116433;-61
2021/05/18 11:59:14;;;;;;;3.10;1.83;;;;;;;13.58;74.18;98609.77;516443;1093;102547;-60
2021/05/18 12:09:19;;;;;;;0.67;0.57;;;;;;;14.03;72.76;98613.52;523574;1098;116100;-60
2021/05/18 12:19:25;;;;;;;1.90;0.73;;;;;;;14.27;71.37;98623.58;512919;1093;116523;-60
2021/05/18 12:29:36;;;;;;;1.10;0.77;;;;;;;14.51;70.77;98627.48;514733;1098;115791;-65
2021/05/18 12:39:44;;;;;;;0.80;0.50;;;;;;;14.15;68.73;98633.48;523889;1098;116027;-65
2021/05/18 12:49:51;;;;;;;1.93;0.90;;;;;;;13.98;70.28;98632.42;527546;1098;116447;-64
2021/05/18 13:00:01;;;;;;;1.00;1.00;;;;;;;13.63;70.19;98639.17;526290;1098;116428;-64
2021/05/18 13:10:17;;;;;;;2.10;1.03;;;;;;;13.70;70.54;98639.44;518935;1098;116327;-65
2021/05/18 13:20:24;;;;;;;1.43;0.57;;;;;;;13.65;69.98;98658.33;520802;1098;116019;-65
2021/05/18 13:30:31;;;;;;;1.67;1.00;;;;;;;13.89;69.78;98654.39;525050;1098;116610;-65
2021/05/18 13:40:36;;;;;;;0.90;0.90;;;;;;;13.89;69.68;98653.58;519722;1098;115707;-65
2021/05/18 13:50:41;;;;;;;2.98;1.45;;;;;;;14.23;69.51;98637.21;521810;1098;116961;-65
2021/05/18 14:00:47;;;;;;;0.93;0.93;;;;;;;14.13;68.25;98643.36;521929;1098;115885;-64
2021/05/18 14:11:04;;;;;;;2.70;1.10;;;;;;;14.04;67.83;98653.95;513084;1098;175746;-63
2021/05/18 14:21:09;;;;;;;1.13;0.93;;;;;;;14.13;67.80;98659.19;520599;1098;116748;-64
2021/05/18 14:31:16;;;;;;;2.40;1.23;;;;;;;14.36;67.09;98665.91;520333;1098;115742;-65
2021/05/18 15:02:03;;;;;;;2.75;1.70;;;;;;;14.56;65.63;98672.77;518065;1098;118133;-64
2021/05/18 15:12:09;;;;;;;2.50;1.10;;;;;;;14.46;65.25;98677.27;528968;1097;116822;-65
2021/05/18 15:22:15;;;;;;;1.00;0.97;;;;;;;14.42;64.49;98679.36;505973;1097;20001151;-65
2021/05/18 15:32:20;;;;;;;1.43;1.10;;;;;;;14.43;63.94;98685.48;522629;1098;172161;-63
2021/05/18 15:42:25;;;;;;;2.00;1.80;;;;;;;14.22;64.20;98690.99;512792;1093;116252;-65
2021/05/18 15:52:31;;;;;;;1.23;0.90;;;;;;;14.22;64.55;98688.35;525207;1098;116267;-65
2021/05/18 16:02:36;;;;;;;6.70;5.77;;;;;;;14.13;65.64;98701.43;523889;1098;116861;-65
2021/05/18 16:12:42;;;;;;;3.77;2.57;;;;;;;14.07;66.91;98698.53;518624;1098;116157;-66
2021/05/18 16:22:47;;;;;;;5.07;2.37;;;;;;;13.94;67.16;98701.47;519540;1098;116475;-64
2021/05/18 16:32:52;;;;;;;3.20;2.25;;;;;;;13.80;67.14;98698.30;514566;1093;116259;-65
2021/05/18 16:42:57;;;;;;;2.97;2.33;;;;;;;13.76;67.86;98725.10;515847;1098;116572;-62
2021/05/18 16:53:03;;;;;;;3.13;2.83;;;;;;;13.45;68.31;98732.20;515801;1093;116770;-66
2021/05/18 17:03:08;;;;;;;2.85;2.53;;;;;;;13.20;69.22;98741.44;526272;1098;116594;-66
2021/05/18 17:13:13;;;;;;;6.07;2.93;;;;;;;13.17;69.95;98734.63;521185;1093;116387;-64
2021/05/18 17:23:19;;;;;;;5.13;2.47;;;;;;;12.92;70.44;98759.66;515016;1098;116521;-66
2021/05/18 17:33:25;;;;;;;4.23;2.90;;;;;;;12.68;71.01;98760.01;526673;1098;117067;-65
2021/05/18 17:43:31;;;;;;;6.90;2.23;;;;;;;12.44;71.56;98766.41;521810;1098;116553;-64
2021/05/18 17:53:38;;;;;;;4.20;2.28;;;;;;;12.23;71.85;98775.16;517397;1098;116754;-65
2021/05/18 18:03:43;;;;;;;3.83;3.50;;;;;;;11.92;72.20;98775.05;525129;1098;116272;-66
2021/05/18 18:13:48;;;;;;;3.50;2.30;;;;;;;11.55;72.45;98768.41;514897;1092;116693;-66
2021/05/18 18:23:53;;;;;;;2.93;1.80;;;;;;;11.28;72.94;98766.22;516860;1098;116793;-65
2021/05/18 18:33:58;;;;;;;2.43;2.23;;;;;;;11.08;73.44;98773.89;517144;1098;115860;-61
2021/05/18 18:44:04;;;;;;;2.23;2.03;;;;;;;10.91;73.77;98786.58;513250;1098;115985;-65
2021/05/18 18:54:09;;;;;;;3.63;2.47;;;;;;;10.86;74.16;98801.84;518643;1098;116668;-63
2021/05/18 19:04:19;;;;;;;2.93;2.73;;;;;;;10.82;74.52;98805.67;515551;1098;116653;-64
2021/05/18 19:14:25;;;;;;;2.80;2.40;;;;;;;10.75;75.61;98807.94;520329;1098;115528;-64
2021/05/18 19:24:30;;;;;;;4.60;2.90;;;;;;;10.67;76.01;98812.94;518997;1098;116576;-65
2021/05/18 19:34:39;;;;;;;3.63;3.33;;;;;;;10.65;76.43;98809.60;523383;1098;116621;-64
2021/05/18 19:44:54;;;;;;;3.70;3.40;;;;;;;10.55;76.43;98812.08;520737;1098;116624;-66
2021/05/18 19:54:59;;;;;;;4.17;2.50;;;;;;;10.53;76.83;98827.11;518842;1098;116234;-64
2021/05/18 20:16:03;;;;;;;3.20;3.00;;;;;;;10.46;76.84;98826.75;528352;1098;116399;-65
2021/05/18 20:26:09;;;;;;;6.10;3.20;;;;;;;10.43;76.99;98828.77;520738;1093;116698;-61
2021/05/18 20:46:46;;;;;;;4.03;3.67;;;;;;;10.35;77.30;98843.29;517794;1098;115924;-65
2021/05/18 20:56:51;;;;;;;4.73;4.33;;;;;;;10.34;77.85;98853.89;516824;1098;116800;-66
2021/05/18 21:07:11;;;;;;;4.87;4.43;;;;;;;10.33;78.02;98849.59;527521;1098;119221;-66
2021/05/18 21:17:17;;;;;;;5.03;4.17;;;;;;;10.30;78.51;98853.27;520232;1098;116352;-65
2021/05/18 21:27:23;;;;;;;5.70;4.40;;;;;;;10.25;78.35;98852.80;522175;1098;117739;-63
2021/05/18 21:37:27;;;;;;;6.17;4.93;;;;;;;10.14;78.70;98856.20;513319;1098;116270;-65
2021/05/18 21:47:32;;;;;;;4.68;4.28;;;;;;;10.03;79.15;98856.16;525323;1097;116389;-65
2021/05/18 21:57:37;;;;;;;9.55;8.65;;;;;;;9.95;79.27;98846.23;521753;1093;116386;-65
2021/05/18 22:07:44;;;;;;;7.37;6.87;;;;;;;9.93;79.23;98848.14;513547;1098;116972;-66
2021/05/18 22:28:12;;;;;;;5.47;5.00;;;;;;;9.93;79.13;98850.77;512867;1098;116955;-63
2021/05/18 22:38:20;;;;;;;3.60;3.30;;;;;;;9.90;79.58;98849.19;514237;1098;116852;-64
2021/05/18 22:48:25;;;;;;;4.80;4.40;;;;;;;9.86;79.56;98852.15;517412;1093;116099;-66
2021/05/18 22:58:29;;;;;;;5.33;4.60;;;;;;;9.82;79.71;98851.56;517584;1098;116062;-65
2021/05/18 23:08:35;;;;;;;5.10;4.63;;;;;;;9.77;80.09;98851.05;511871;1098;115759;-65
2021/05/18 23:18:40;;;;;;;5.70;5.10;;;;;;;9.71;80.04;98857.56;513140;1098;115989;-65
2021/05/18 23:28:45;;;;;;;6.47;5.87;;;;;;;9.65;80.21;98850.16;522073;1098;116296;-66
2021/05/18 23:38:51;;;;;;;5.73;5.23;;;;;;;9.60;80.38;98842.63;523678;1098;116198;-65
2021/05/18 23:49:06;;;;;;;6.90;6.30;;;;;;;9.58;79.63;98849.77;515746;1093;118392;-64
2021/05/18 23:59:11;;;;;;;5.30;4.80;;;;;;;9.56;80.42;98850.82;519052;1098;116446;-64
